sensor_id;sensor_type;location;lat;lon;timestamp;P1;durP1;ratioP1;P2;durP2;ratioP2
29412;SDS011;16389;50.126;8.450;2023-12-20T00:00:36;5.95;;;5.32;;
29412;SDS011;16389;50.126;8.450;2023-12-20T00:03:03;5.28;;;4.50;;
29412;SDS011;16389;50.126;8.450;2023-12-20T00:05:29;5.15;;;4.55;;
29412;SDS011;16389;50.126;8.450;2023-12-20T00:07:57;6.40;;;5.25;;
29412;SDS011;16389;50.126;8.450;2023-12-20T00:10:23;5.53;;;5.00;;
29412;SDS011;16389;50.126;8.450;2023-12-20T00:12:48;5.10;;;4.60;;
29412;SDS011;16389;50.126;8.450;2023-12-20T00:15:17;6.00;;;5.22;;
29412;SDS011;16389;50.126;8.450;2023-12-20T00:17:42;5.88;;;5.20;;
29412;SDS011;16389;50.126;8.450;2023-12-20T00:20:08;5.80;;;5.20;;
29412;SDS011;16389;50.126;8.450;2023-12-20T00:22:37;6.95;;;4.80;;
29412;SDS011;16389;50.126;8.450;2023-12-20T00:25:02;6.55;;;4.90;;
29412;SDS011;16389;50.126;8.450;2023-12-20T00:27:29;5.60;;;5.07;;
29412;SDS011;16389;50.126;8.450;2023-12-20T00:29:55;5.20;;;4.72;;
29412;SDS011;16389;50.126;8.450;2023-12-20T00:32:21;5.88;;;5.28;;
29412;SDS011;16389;50.126;8.450;2023-12-20T00:34:46;5.90;;;5.32;;
29412;SDS011;16389;50.126;8.450;2023-12-20T00:37:15;6.97;;;5.32;;
29412;SDS011;16389;50.126;8.450;2023-12-20T00:39:41;5.93;;;5.35;;
29412;SDS011;16389;50.126;8.450;2023-12-20T00:42:07;5.80;;;5.20;;
29412;SDS011;16389;50.126;8.450;2023-12-20T00:44:33;5.70;;;5.10;;
29412;SDS011;16389;50.126;8.450;2023-12-20T00:46:58;6.18;;;5.30;;
29412;SDS011;16389;50.126;8.450;2023-12-20T00:49:24;6.18;;;5.57;;
29412;SDS011;16389;50.126;8.450;2023-12-20T00:51:50;8.05;;;6.07;;
29412;SDS011;16389;50.126;8.450;2023-12-20T00:54:25;6.40;;;5.57;;
29412;SDS011;16389;50.126;8.450;2023-12-20T00:56:50;5.03;;;4.53;;
29412;SDS011;16389;50.126;8.450;2023-12-20T00:59:17;6.05;;;5.10;;
29412;SDS011;16389;50.126;8.450;2023-12-20T01:01:43;5.63;;;5.00;;
29412;SDS011;16389;50.126;8.450;2023-12-20T01:04:11;10.55;;;5.07;;
29412;SDS011;16389;50.126;8.450;2023-12-20T01:06:37;5.63;;;5.00;;
29412;SDS011;16389;50.126;8.450;2023-12-20T01:09:02;5.38;;;4.50;;
29412;SDS011;16389;50.126;8.450;2023-12-20T01:11:28;6.47;;;4.50;;
29412;SDS011;16389;50.126;8.450;2023-12-20T01:13:54;5.10;;;4.60;;
29412;SDS011;16389;50.126;8.450;2023-12-20T01:16:19;5.47;;;4.95;;
29412;SDS011;16389;50.126;8.450;2023-12-20T01:18:45;5.35;;;4.85;;
29412;SDS011;16389;50.126;8.450;2023-12-20T01:21:14;4.95;;;4.20;;
29412;SDS011;16389;50.126;8.450;2023-12-20T01:23:40;4.60;;;4.10;;
29412;SDS011;16389;50.126;8.450;2023-12-20T01:26:05;5.63;;;5.03;;
29412;SDS011;16389;50.126;8.450;2023-12-20T01:28:32;4.70;;;4.15;;
29412;SDS011;16389;50.126;8.450;2023-12-20T01:30:58;5.28;;;4.07;;
29412;SDS011;16389;50.126;8.450;2023-12-20T01:33:23;5.47;;;4.63;;
29412;SDS011;16389;50.126;8.450;2023-12-20T01:35:49;4.18;;;3.58;;
29412;SDS011;16389;50.126;8.450;2023-12-20T01:38:15;4.85;;;4.35;;
29412;SDS011;16389;50.126;8.450;2023-12-20T01:40:43;4.88;;;3.67;;
29412;SDS011;16389;50.126;8.450;2023-12-20T01:43:09;4.30;;;3.80;;
29412;SDS011;16389;50.126;8.450;2023-12-20T01:45:37;4.70;;;3.90;;
29412;SDS011;16389;50.126;8.450;2023-12-20T01:48:03;6.97;;;4.15;;
29412;SDS011;16389;50.126;8.450;2023-12-20T01:50:30;5.85;;;4.00;;
29412;SDS011;16389;50.126;8.450;2023-12-20T01:52:57;4.35;;;3.90;;
29412;SDS011;16389;50.126;8.450;2023-12-20T01:55:25;4.43;;;3.90;;
29412;SDS011;16389;50.126;8.450;2023-12-20T01:57:54;5.33;;;3.70;;
29412;SDS011;16389;50.126;8.450;2023-12-20T02:00:21;4.30;;;3.90;;
29412;SDS011;16389;50.126;8.450;2023-12-20T02:02:52;5.07;;;4.20;;
29412;SDS011;16389;50.126;8.450;2023-12-20T02:05:24;5.03;;;4.05;;
29412;SDS011;16389;50.126;8.450;2023-12-20T02:07:50;4.85;;;3.88;;
29412;SDS011;16389;50.126;8.450;2023-12-20T02:10:16;5.63;;;4.43;;
29412;SDS011;16389;50.126;8.450;2023-12-20T02:12:42;4.22;;;3.83;;
29412;SDS011;16389;50.126;8.450;2023-12-20T02:15:08;4.55;;;4.07;;
29412;SDS011;16389;50.126;8.450;2023-12-20T02:17:33;4.38;;;3.97;;
29412;SDS011;16389;50.126;8.450;2023-12-20T02:20:02;3.78;;;3.47;;
29412;SDS011;16389;50.126;8.450;2023-12-20T02:22:27;4.50;;;3.83;;
29412;SDS011;16389;50.126;8.450;2023-12-20T02:24:53;4.82;;;4.32;;
29412;SDS011;16389;50.126;8.450;2023-12-20T02:27:19;4.40;;;4.00;;
29412;SDS011;16389;50.126;8.450;2023-12-20T02:29:46;4.35;;;3.95;;
29412;SDS011;16389;50.126;8.450;2023-12-20T02:32:12;4.30;;;3.88;;
29412;SDS011;16389;50.126;8.450;2023-12-20T02:34:44;4.35;;;3.88;;
29412;SDS011;16389;50.126;8.450;2023-12-20T02:37:11;4.28;;;3.88;;
29412;SDS011;16389;50.126;8.450;2023-12-20T02:39:40;4.78;;;3.97;;
29412;SDS011;16389;50.126;8.450;2023-12-20T02:42:06;4.20;;;3.55;;
29412;SDS011;16389;50.126;8.450;2023-12-20T02:44:41;5.88;;;3.90;;
29412;SDS011;16389;50.126;8.450;2023-12-20T02:47:12;4.40;;;4.00;;
29412;SDS011;16389;50.126;8.450;2023-12-20T02:49:51;4.32;;;3.92;;
29412;SDS011;16389;50.126;8.450;2023-12-20T02:52:39;4.32;;;3.92;;
29412;SDS011;16389;50.126;8.450;2023-12-20T02:55:05;8.40;;;4.15;;
29412;SDS011;16389;50.126;8.450;2023-12-20T02:57:31;4.85;;;4.35;;
29412;SDS011;16389;50.126;8.450;2023-12-20T02:59:58;4.40;;;3.45;;
29412;SDS011;16389;50.126;8.450;2023-12-20T03:02:24;6.00;;;4.30;;
29412;SDS011;16389;50.126;8.450;2023-12-20T03:04:49;4.97;;;4.53;;
29412;SDS011;16389;50.126;8.450;2023-12-20T03:07:15;4.65;;;4.20;;
29412;SDS011;16389;50.126;8.450;2023-12-20T03:09:40;6.28;;;4.55;;
29412;SDS011;16389;50.126;8.450;2023-12-20T03:12:06;5.20;;;4.70;;
29412;SDS011;16389;50.126;8.450;2023-12-20T03:14:32;5.15;;;4.70;;
29412;SDS011;16389;50.126;8.450;2023-12-20T03:16:57;5.60;;;4.43;;
29412;SDS011;16389;50.126;8.450;2023-12-20T03:19:23;3.95;;;3.50;;
29412;SDS011;16389;50.126;8.450;2023-12-20T03:21:49;4.70;;;4.30;;
29412;SDS011;16389;50.126;8.450;2023-12-20T03:24:15;4.57;;;3.35;;
29412;SDS011;16389;50.126;8.450;2023-12-20T03:26:40;3.90;;;3.50;;
29412;SDS011;16389;50.126;8.450;2023-12-20T03:29:06;4.45;;;3.92;;
29412;SDS011;16389;50.126;8.450;2023-12-20T03:31:32;4.85;;;3.65;;
29412;SDS011;16389;50.126;8.450;2023-12-20T03:33:57;4.43;;;4.03;;
29412;SDS011;16389;50.126;8.450;2023-12-20T03:36:23;3.92;;;3.53;;
29412;SDS011;16389;50.126;8.450;2023-12-20T03:38:49;4.50;;;3.97;;
29412;SDS011;16389;50.126;8.450;2023-12-20T03:41:14;3.90;;;3.28;;
29412;SDS011;16389;50.126;8.450;2023-12-20T03:43:40;4.30;;;3.20;;
29412;SDS011;16389;50.126;8.450;2023-12-20T03:46:08;7.93;;;3.45;;
29412;SDS011;16389;50.126;8.450;2023-12-20T03:48:34;3.47;;;3.10;;
29412;SDS011;16389;50.126;8.450;2023-12-20T03:51:00;3.38;;;2.92;;
29412;SDS011;16389;50.126;8.450;2023-12-20T03:53:26;4.10;;;3.70;;
29412;SDS011;16389;50.126;8.450;2023-12-20T03:55:51;4.68;;;3.90;;
29412;SDS011;16389;50.126;8.450;2023-12-20T03:58:17;3.72;;;2.83;;
29412;SDS011;16389;50.126;8.450;2023-12-20T04:00:42;2.50;;;2.20;;
29412;SDS011;16389;50.126;8.450;2023-12-20T04:03:08;2.45;;;2.20;;
29412;SDS011;16389;50.126;8.450;2023-12-20T04:05:34;2.28;;;1.77;;
29412;SDS011;16389;50.126;8.450;2023-12-20T04:08:01;2.13;;;1.80;;
29412;SDS011;16389;50.126;8.450;2023-12-20T04:10:33;3.47;;;3.17;;
29412;SDS011;16389;50.126;8.450;2023-12-20T04:13:11;2.92;;;1.70;;
29412;SDS011;16389;50.126;8.450;2023-12-20T04:15:40;2.83;;;1.88;;
29412;SDS011;16389;50.126;8.450;2023-12-20T04:18:09;2.33;;;2.03;;
29412;SDS011;16389;50.126;8.450;2023-12-20T04:20:38;2.40;;;1.92;;
29412;SDS011;16389;50.126;8.450;2023-12-20T04:23:04;1.85;;;1.65;;
29412;SDS011;16389;50.126;8.450;2023-12-20T04:25:39;2.55;;;2.10;;
29412;SDS011;16389;50.126;8.450;2023-12-20T04:28:25;2.38;;;1.98;;
29412;SDS011;16389;50.126;8.450;2023-12-20T04:30:53;2.72;;;2.10;;
29412;SDS011;16389;50.126;8.450;2023-12-20T04:33:25;2.25;;;1.95;;
29412;SDS011;16389;50.126;8.450;2023-12-20T04:39:23;2.80;;;1.88;;
29412;SDS011;16389;50.126;8.450;2023-12-20T04:41:52;2.50;;;2.20;;
29412;SDS011;16389;50.126;8.450;2023-12-20T04:44:21;4.13;;;1.98;;
29412;SDS011;16389;50.126;8.450;2023-12-20T04:46:56;4.18;;;1.77;;
29412;SDS011;16389;50.126;8.450;2023-12-20T04:49:22;4.20;;;3.08;;
29412;SDS011;16389;50.126;8.450;2023-12-20T04:51:51;5.03;;;3.88;;
29412;SDS011;16389;50.126;8.450;2023-12-20T04:54:17;4.18;;;3.65;;
29412;SDS011;16389;50.126;8.450;2023-12-20T04:56:45;6.22;;;4.50;;
29412;SDS011;16389;50.126;8.450;2023-12-20T04:59:12;4.43;;;4.00;;
29412;SDS011;16389;50.126;8.450;2023-12-20T05:01:38;5.25;;;3.40;;
29412;SDS011;16389;50.126;8.450;2023-12-20T05:04:13;6.93;;;3.35;;
29412;SDS011;16389;50.126;8.450;2023-12-20T05:06:39;11.68;;;3.13;;
29412;SDS011;16389;50.126;8.450;2023-12-20T05:09:05;6.55;;;2.55;;
29412;SDS011;16389;50.126;8.450;2023-12-20T05:11:30;3.60;;;2.53;;
29412;SDS011;16389;50.126;8.450;2023-12-20T05:13:56;7.97;;;2.17;;
29412;SDS011;16389;50.126;8.450;2023-12-20T05:16:22;5.38;;;1.92;;
29412;SDS011;16389;50.126;8.450;2023-12-20T05:18:48;3.67;;;1.85;;
29412;SDS011;16389;50.126;8.450;2023-12-20T05:21:15;3.10;;;2.38;;
29412;SDS011;16389;50.126;8.450;2023-12-20T05:23:41;8.95;;;2.45;;
29412;SDS011;16389;50.126;8.450;2023-12-20T05:26:06;2.90;;;1.90;;
29412;SDS011;16389;50.126;8.450;2023-12-20T05:28:32;3.78;;;2.50;;
29412;SDS011;16389;50.126;8.450;2023-12-20T05:31:00;9.20;;;2.85;;
29412;SDS011;16389;50.126;8.450;2023-12-20T05:33:26;6.57;;;1.55;;
29412;SDS011;16389;50.126;8.450;2023-12-20T05:35:51;2.75;;;1.70;;
29412;SDS011;16389;50.126;8.450;2023-12-20T05:38:17;6.15;;;1.63;;
29412;SDS011;16389;50.126;8.450;2023-12-20T05:40:43;1.73;;;1.27;;
29412;SDS011;16389;50.126;8.450;2023-12-20T05:43:08;6.63;;;1.88;;
29412;SDS011;16389;50.126;8.450;2023-12-20T05:45:34;5.80;;;1.50;;
29412;SDS011;16389;50.126;8.450;2023-12-20T05:47:59;3.65;;;1.38;;
29412;SDS011;16389;50.126;8.450;2023-12-20T05:50:25;4.35;;;1.23;;
29412;SDS011;16389;50.126;8.450;2023-12-20T05:52:53;4.32;;;1.20;;
29412;SDS011;16389;50.126;8.450;2023-12-20T05:55:20;3.60;;;1.00;;
29412;SDS011;16389;50.126;8.450;2023-12-20T05:57:48;2.65;;;0.90;;
29412;SDS011;16389;50.126;8.450;2023-12-20T06:00:17;6.70;;;1.23;;
29412;SDS011;16389;50.126;8.450;2023-12-20T06:02:43;6.18;;;1.65;;
29412;SDS011;16389;50.126;8.450;2023-12-20T06:05:11;3.85;;;1.45;;
29412;SDS011;16389;50.126;8.450;2023-12-20T06:07:37;4.70;;;1.10;;
29412;SDS011;16389;50.126;8.450;2023-12-20T06:10:03;3.30;;;1.00;;
29412;SDS011;16389;50.126;8.450;2023-12-20T06:12:28;4.40;;;1.00;;
29412;SDS011;16389;50.126;8.450;2023-12-20T06:14:57;2.97;;;1.15;;
29412;SDS011;16389;50.126;8.450;2023-12-20T06:17:22;2.20;;;1.50;;
29412;SDS011;16389;50.126;8.450;2023-12-20T06:19:48;4.28;;;1.48;;
29412;SDS011;16389;50.126;8.450;2023-12-20T06:22:14;3.05;;;1.00;;
29412;SDS011;16389;50.126;8.450;2023-12-20T06:24:40;2.90;;;1.10;;
29412;SDS011;16389;50.126;8.450;2023-12-20T06:27:09;3.17;;;0.80;;
29412;SDS011;16389;50.126;8.450;2023-12-20T06:29:37;9.65;;;1.40;;
29412;SDS011;16389;50.126;8.450;2023-12-20T06:32:03;2.90;;;1.27;;
29412;SDS011;16389;50.126;8.450;2023-12-20T06:34:29;4.15;;;1.00;;
29412;SDS011;16389;50.126;8.450;2023-12-20T06:36:55;4.05;;;1.70;;
29412;SDS011;16389;50.126;8.450;2023-12-20T06:39:21;3.13;;;1.20;;
29412;SDS011;16389;50.126;8.450;2023-12-20T06:41:46;3.45;;;1.27;;
29412;SDS011;16389;50.126;8.450;2023-12-20T06:44:12;3.00;;;1.38;;
29412;SDS011;16389;50.126;8.450;2023-12-20T06:46:37;3.80;;;1.42;;
29412;SDS011;16389;50.126;8.450;2023-12-20T06:49:03;3.47;;;1.20;;
29412;SDS011;16389;50.126;8.450;2023-12-20T06:51:28;5.38;;;1.20;;
29412;SDS011;16389;50.126;8.450;2023-12-20T06:53:56;4.13;;;1.20;;
29412;SDS011;16389;50.126;8.450;2023-12-20T06:56:21;9.10;;;1.30;;
29412;SDS011;16389;50.126;8.450;2023-12-20T06:58:47;3.63;;;1.30;;
29412;SDS011;16389;50.126;8.450;2023-12-20T07:01:15;5.15;;;1.60;;
29412;SDS011;16389;50.126;8.450;2023-12-20T07:03:41;3.50;;;1.75;;
29412;SDS011;16389;50.126;8.450;2023-12-20T07:06:07;5.43;;;1.73;;
29412;SDS011;16389;50.126;8.450;2023-12-20T07:08:33;8.75;;;1.80;;
29412;SDS011;16389;50.126;8.450;2023-12-20T07:10:59;6.50;;;1.65;;
29412;SDS011;16389;50.126;8.450;2023-12-20T07:13:25;6.53;;;2.00;;
29412;SDS011;16389;50.126;8.450;2023-12-20T07:15:51;2.90;;;1.55;;
29412;SDS011;16389;50.126;8.450;2023-12-20T07:18:16;6.40;;;1.70;;
29412;SDS011;16389;50.126;8.450;2023-12-20T07:20:42;3.70;;;1.58;;
29412;SDS011;16389;50.126;8.450;2023-12-20T07:23:11;4.60;;;1.45;;
29412;SDS011;16389;50.126;8.450;2023-12-20T07:25:36;4.00;;;1.50;;
29412;SDS011;16389;50.126;8.450;2023-12-20T07:28:02;5.20;;;1.80;;
29412;SDS011;16389;50.126;8.450;2023-12-20T07:30:27;5.55;;;1.83;;
29412;SDS011;16389;50.126;8.450;2023-12-20T07:32:53;6.97;;;2.25;;
29412;SDS011;16389;50.126;8.450;2023-12-20T07:35:19;1.85;;;1.33;;
29412;SDS011;16389;50.126;8.450;2023-12-20T07:37:44;3.17;;;1.73;;
29412;SDS011;16389;50.126;8.450;2023-12-20T07:40:10;4.13;;;2.22;;
29412;SDS011;16389;50.126;8.450;2023-12-20T07:42:38;3.33;;;1.90;;
29412;SDS011;16389;50.126;8.450;2023-12-20T07:45:04;5.45;;;2.22;;
29412;SDS011;16389;50.126;8.450;2023-12-20T07:47:30;15.95;;;2.70;;
29412;SDS011;16389;50.126;8.450;2023-12-20T07:49:55;4.15;;;2.20;;
29412;SDS011;16389;50.126;8.450;2023-12-20T07:52:21;4.30;;;1.80;;
29412;SDS011;16389;50.126;8.450;2023-12-20T07:54:50;3.95;;;1.90;;
29412;SDS011;16389;50.126;8.450;2023-12-20T07:57:16;4.50;;;2.15;;
29412;SDS011;16389;50.126;8.450;2023-12-20T07:59:41;7.20;;;2.05;;
29412;SDS011;16389;50.126;8.450;2023-12-20T08:02:09;4.53;;;1.75;;
29412;SDS011;16389;50.126;8.450;2023-12-20T08:04:35;3.53;;;1.58;;
29412;SDS011;16389;50.126;8.450;2023-12-20T08:07:09;4.75;;;1.70;;
29412;SDS011;16389;50.126;8.450;2023-12-20T08:09:35;6.65;;;1.95;;
29412;SDS011;16389;50.126;8.450;2023-12-20T08:12:01;5.85;;;1.58;;
29412;SDS011;16389;50.126;8.450;2023-12-20T08:14:27;4.32;;;1.45;;
29412;SDS011;16389;50.126;8.450;2023-12-20T08:16:53;6.05;;;1.67;;
29412;SDS011;16389;50.126;8.450;2023-12-20T08:19:19;8.15;;;1.40;;
29412;SDS011;16389;50.126;8.450;2023-12-20T08:21:44;3.30;;;1.58;;
29412;SDS011;16389;50.126;8.450;2023-12-20T08:24:13;4.75;;;1.20;;
29412;SDS011;16389;50.126;8.450;2023-12-20T08:26:39;3.28;;;1.40;;
29412;SDS011;16389;50.126;8.450;2023-12-20T08:29:04;5.72;;;1.40;;
29412;SDS011;16389;50.126;8.450;2023-12-20T08:31:33;2.38;;;1.30;;
29412;SDS011;16389;50.126;8.450;2023-12-20T08:34:05;4.03;;;2.00;;
29412;SDS011;16389;50.126;8.450;2023-12-20T08:36:40;3.72;;;1.27;;
29412;SDS011;16389;50.126;8.450;2023-12-20T08:39:05;5.07;;;1.70;;
29412;SDS011;16389;50.126;8.450;2023-12-20T08:41:35;5.75;;;1.67;;
29412;SDS011;16389;50.126;8.450;2023-12-20T08:44:02;3.40;;;1.60;;
29412;SDS011;16389;50.126;8.450;2023-12-20T08:46:36;5.30;;;1.70;;
29412;SDS011;16389;50.126;8.450;2023-12-20T08:51:57;3.83;;;1.35;;
29412;SDS011;16389;50.126;8.450;2023-12-20T08:54:23;3.42;;;1.52;;
29412;SDS011;16389;50.126;8.450;2023-12-20T08:56:49;3.10;;;1.60;;
29412;SDS011;16389;50.126;8.450;2023-12-20T08:59:15;3.67;;;1.30;;
29412;SDS011;16389;50.126;8.450;2023-12-20T09:01:43;9.90;;;1.60;;
29412;SDS011;16389;50.126;8.450;2023-12-20T09:04:09;4.95;;;1.60;;
29412;SDS011;16389;50.126;8.450;2023-12-20T09:06:35;5.82;;;2.17;;
29412;SDS011;16389;50.126;8.450;2023-12-20T09:09:01;5.88;;;1.83;;
29412;SDS011;16389;50.126;8.450;2023-12-20T09:11:26;2.47;;;1.27;;
29412;SDS011;16389;50.126;8.450;2023-12-20T09:14:04;4.43;;;1.95;;
29412;SDS011;16389;50.126;8.450;2023-12-20T09:17:03;6.57;;;1.67;;
29412;SDS011;16389;50.126;8.450;2023-12-20T09:19:28;6.10;;;1.73;;
29412;SDS011;16389;50.126;8.450;2023-12-20T09:21:54;4.53;;;1.85;;
29412;SDS011;16389;50.126;8.450;2023-12-20T09:24:20;3.80;;;1.50;;
29412;SDS011;16389;50.126;8.450;2023-12-20T09:26:46;3.92;;;1.65;;
29412;SDS011;16389;50.126;8.450;2023-12-20T09:29:11;4.57;;;1.52;;
29412;SDS011;16389;50.126;8.450;2023-12-20T09:31:40;3.70;;;1.30;;
29412;SDS011;16389;50.126;8.450;2023-12-20T09:34:08;7.00;;;2.00;;
29412;SDS011;16389;50.126;8.450;2023-12-20T09:36:37;3.50;;;1.67;;
29412;SDS011;16389;50.126;8.450;2023-12-20T09:39:07;5.78;;;1.45;;
29412;SDS011;16389;50.126;8.450;2023-12-20T09:41:34;4.95;;;2.22;;
29412;SDS011;16389;50.126;8.450;2023-12-20T09:44:05;5.45;;;1.77;;
29412;SDS011;16389;50.126;8.450;2023-12-20T09:46:43;4.40;;;1.23;;
29412;SDS011;16389;50.126;8.450;2023-12-20T09:49:10;3.17;;;1.67;;
29412;SDS011;16389;50.126;8.450;2023-12-20T09:51:37;2.88;;;1.50;;
29412;SDS011;16389;50.126;8.450;2023-12-20T09:54:04;6.15;;;1.98;;
29412;SDS011;16389;50.126;8.450;2023-12-20T09:56:30;3.60;;;1.40;;
29412;SDS011;16389;50.126;8.450;2023-12-20T09:58:56;4.25;;;1.75;;
29412;SDS011;16389;50.126;8.450;2023-12-20T10:01:22;5.22;;;1.67;;
29412;SDS011;16389;50.126;8.450;2023-12-20T10:03:48;2.45;;;1.48;;
29412;SDS011;16389;50.126;8.450;2023-12-20T10:06:16;7.55;;;2.22;;
29412;SDS011;16389;50.126;8.450;2023-12-20T10:08:42;5.32;;;1.45;;
29412;SDS011;16389;50.126;8.450;2023-12-20T10:11:08;5.68;;;1.50;;
29412;SDS011;16389;50.126;8.450;2023-12-20T10:13:34;3.80;;;1.63;;
29412;SDS011;16389;50.126;8.450;2023-12-20T10:16:13;5.78;;;1.73;;
29412;SDS011;16389;50.126;8.450;2023-12-20T10:18:39;4.38;;;2.38;;
29412;SDS011;16389;50.126;8.450;2023-12-20T10:21:05;4.80;;;1.90;;
29412;SDS011;16389;50.126;8.450;2023-12-20T10:23:35;5.95;;;1.60;;
29412;SDS011;16389;50.126;8.450;2023-12-20T10:26:01;4.70;;;1.75;;
29412;SDS011;16389;50.126;8.450;2023-12-20T10:28:28;8.52;;;1.70;;
29412;SDS011;16389;50.126;8.450;2023-12-20T10:30:59;6.13;;;1.52;;
29412;SDS011;16389;50.126;8.450;2023-12-20T10:33:28;3.05;;;1.50;;
29412;SDS011;16389;50.126;8.450;2023-12-20T10:36:00;4.53;;;1.85;;
29412;SDS011;16389;50.126;8.450;2023-12-20T10:38:25;4.40;;;1.92;;
29412;SDS011;16389;50.126;8.450;2023-12-20T10:40:56;8.55;;;2.10;;
29412;SDS011;16389;50.126;8.450;2023-12-20T10:43:26;4.45;;;1.80;;
29412;SDS011;16389;50.126;8.450;2023-12-20T10:45:54;5.03;;;1.98;;
29412;SDS011;16389;50.126;8.450;2023-12-20T10:48:19;7.10;;;2.50;;
29412;SDS011;16389;50.126;8.450;2023-12-20T10:50:50;7.50;;;1.98;;
29412;SDS011;16389;50.126;8.450;2023-12-20T10:53:20;5.45;;;1.83;;
29412;SDS011;16389;50.126;8.450;2023-12-20T10:55:48;5.97;;;2.28;;
29412;SDS011;16389;50.126;8.450;2023-12-20T10:58:20;6.50;;;2.13;;
29412;SDS011;16389;50.126;8.450;2023-12-20T11:00:47;5.40;;;1.60;;
29412;SDS011;16389;50.126;8.450;2023-12-20T11:03:30;8.65;;;2.15;;
29412;SDS011;16389;50.126;8.450;2023-12-20T11:06:04;4.15;;;1.75;;
29412;SDS011;16389;50.126;8.450;2023-12-20T11:11:38;4.78;;;1.60;;
29412;SDS011;16389;50.126;8.450;2023-12-20T11:14:19;6.03;;;1.70;;
29412;SDS011;16389;50.126;8.450;2023-12-20T11:17:04;4.55;;;1.52;;
29412;SDS011;16389;50.126;8.450;2023-12-20T11:19:31;4.03;;;1.60;;
29412;SDS011;16389;50.126;8.450;2023-12-20T11:21:56;4.22;;;1.75;;
29412;SDS011;16389;50.126;8.450;2023-12-20T11:24:22;9.63;;;2.70;;
29412;SDS011;16389;50.126;8.450;2023-12-20T11:26:49;10.52;;;2.05;;
29412;SDS011;16389;50.126;8.450;2023-12-20T11:29:37;4.70;;;1.20;;
29412;SDS011;16389;50.126;8.450;2023-12-20T11:32:47;4.70;;;1.23;;
29412;SDS011;16389;50.126;8.450;2023-12-20T11:37:35;3.60;;;1.08;;
29412;SDS011;16389;50.126;8.450;2023-12-20T11:40:22;4.75;;;1.20;;
29412;SDS011;16389;50.126;8.450;2023-12-20T11:42:50;6.38;;;1.60;;
29412;SDS011;16389;50.126;8.450;2023-12-20T11:45:18;2.63;;;1.10;;
29412;SDS011;16389;50.126;8.450;2023-12-20T11:47:54;4.53;;;1.25;;
29412;SDS011;16389;50.126;8.450;2023-12-20T11:50:22;5.70;;;1.20;;
29412;SDS011;16389;50.126;8.450;2023-12-20T11:52:48;5.30;;;1.40;;
29412;SDS011;16389;50.126;8.450;2023-12-20T11:55:15;5.45;;;1.88;;
29412;SDS011;16389;50.126;8.450;2023-12-20T11:57:41;7.45;;;1.23;;
29412;SDS011;16389;50.126;8.450;2023-12-20T12:00:08;3.50;;;1.20;;
29412;SDS011;16389;50.126;8.450;2023-12-20T12:02:36;3.97;;;1.20;;
29412;SDS011;16389;50.126;8.450;2023-12-20T12:05:02;4.18;;;1.15;;
29412;SDS011;16389;50.126;8.450;2023-12-20T12:07:30;5.78;;;1.30;;
29412;SDS011;16389;50.126;8.450;2023-12-20T12:13:01;4.57;;;1.10;;
29412;SDS011;16389;50.126;8.450;2023-12-20T12:15:27;3.25;;;1.33;;
29412;SDS011;16389;50.126;8.450;2023-12-20T12:17:56;4.75;;;1.15;;
29412;SDS011;16389;50.126;8.450;2023-12-20T12:25:38;4.78;;;1.25;;
29412;SDS011;16389;50.126;8.450;2023-12-20T12:28:03;4.25;;;1.13;;
29412;SDS011;16389;50.126;8.450;2023-12-20T12:30:30;3.63;;;1.00;;
29412;SDS011;16389;50.126;8.450;2023-12-20T12:32:56;2.75;;;1.00;;
29412;SDS011;16389;50.126;8.450;2023-12-20T12:35:22;3.60;;;1.10;;
29412;SDS011;16389;50.126;8.450;2023-12-20T12:37:51;3.15;;;1.27;;
29412;SDS011;16389;50.126;8.450;2023-12-20T12:40:17;6.20;;;1.30;;
29412;SDS011;16389;50.126;8.450;2023-12-20T12:42:43;4.18;;;1.65;;
29412;SDS011;16389;50.126;8.450;2023-12-20T12:45:10;2.65;;;1.10;;
29412;SDS011;16389;50.126;8.450;2023-12-20T12:47:39;4.85;;;1.20;;
29412;SDS011;16389;50.126;8.450;2023-12-20T12:50:05;5.30;;;1.38;;
29412;SDS011;16389;50.126;8.450;2023-12-20T12:52:31;3.78;;;1.40;;
29412;SDS011;16389;50.126;8.450;2023-12-20T12:54:57;6.75;;;1.30;;
29412;SDS011;16389;50.126;8.450;2023-12-20T12:57:23;5.53;;;1.73;;
29412;SDS011;16389;50.126;8.450;2023-12-20T12:59:49;6.70;;;1.48;;
29412;SDS011;16389;50.126;8.450;2023-12-20T13:02:15;1.88;;;0.93;;
29412;SDS011;16389;50.126;8.450;2023-12-20T13:04:44;4.25;;;1.05;;
29412;SDS011;16389;50.126;8.450;2023-12-20T13:07:10;1.35;;;1.00;;
29412;SDS011;16389;50.126;8.450;2023-12-20T13:09:37;3.58;;;1.20;;
29412;SDS011;16389;50.126;8.450;2023-12-20T13:12:04;2.47;;;1.00;;
29412;SDS011;16389;50.126;8.450;2023-12-20T13:14:32;2.92;;;1.10;;
29412;SDS011;16389;50.126;8.450;2023-12-20T13:16:59;4.05;;;1.27;;
29412;SDS011;16389;50.126;8.450;2023-12-20T13:19:25;2.28;;;1.27;;
29412;SDS011;16389;50.126;8.450;2023-12-20T13:21:51;3.40;;;1.20;;
29412;SDS011;16389;50.126;8.450;2023-12-20T13:24:21;4.28;;;1.20;;
29412;SDS011;16389;50.126;8.450;2023-12-20T13:26:46;4.30;;;1.40;;
29412;SDS011;16389;50.126;8.450;2023-12-20T13:29:12;7.43;;;1.30;;
29412;SDS011;16389;50.126;8.450;2023-12-20T13:31:37;1.65;;;1.30;;
29412;SDS011;16389;50.126;8.450;2023-12-20T13:34:04;3.58;;;1.50;;
29412;SDS011;16389;50.126;8.450;2023-12-20T13:36:31;2.42;;;1.02;;
29412;SDS011;16389;50.126;8.450;2023-12-20T13:38:56;7.05;;;1.70;;
29412;SDS011;16389;50.126;8.450;2023-12-20T13:41:22;5.07;;;1.30;;
29412;SDS011;16389;50.126;8.450;2023-12-20T13:43:48;3.10;;;1.15;;
29412;SDS011;16389;50.126;8.450;2023-12-20T13:46:13;3.30;;;1.65;;
29412;SDS011;16389;50.126;8.450;2023-12-20T13:48:39;4.55;;;1.30;;
29412;SDS011;16389;50.126;8.450;2023-12-20T13:51:05;3.47;;;1.40;;
29412;SDS011;16389;50.126;8.450;2023-12-20T13:53:31;3.22;;;1.10;;
29412;SDS011;16389;50.126;8.450;2023-12-20T13:55:59;3.22;;;1.42;;
29412;SDS011;16389;50.126;8.450;2023-12-20T13:58:25;4.13;;;1.10;;
29412;SDS011;16389;50.126;8.450;2023-12-20T14:00:51;4.13;;;1.30;;
29412;SDS011;16389;50.126;8.450;2023-12-20T14:03:16;3.88;;;1.25;;
29412;SDS011;16389;50.126;8.450;2023-12-20T14:06:00;3.30;;;1.75;;
29412;SDS011;16389;50.126;8.450;2023-12-20T14:08:26;4.20;;;1.10;;
29412;SDS011;16389;50.126;8.450;2023-12-20T14:10:55;5.70;;;1.30;;
29412;SDS011;16389;50.126;8.450;2023-12-20T14:13:21;3.30;;;1.02;;
29412;SDS011;16389;50.126;8.450;2023-12-20T14:15:58;4.88;;;1.30;;
29412;SDS011;16389;50.126;8.450;2023-12-20T14:18:25;4.10;;;1.10;;
29412;SDS011;16389;50.126;8.450;2023-12-20T14:20:51;2.42;;;1.20;;
29412;SDS011;16389;50.126;8.450;2023-12-20T14:23:19;4.15;;;1.10;;
29412;SDS011;16389;50.126;8.450;2023-12-20T14:25:44;4.57;;;1.38;;
29412;SDS011;16389;50.126;8.450;2023-12-20T14:28:19;4.18;;;1.20;;
29412;SDS011;16389;50.126;8.450;2023-12-20T14:33:30;3.95;;;1.45;;
29412;SDS011;16389;50.126;8.450;2023-12-20T14:35:59;2.88;;;1.40;;
29412;SDS011;16389;50.126;8.450;2023-12-20T14:38:25;4.95;;;1.98;;
29412;SDS011;16389;50.126;8.450;2023-12-20T14:40:53;3.30;;;1.05;;
29412;SDS011;16389;50.126;8.450;2023-12-20T14:43:19;5.45;;;1.40;;
29412;SDS011;16389;50.126;8.450;2023-12-20T14:45:47;9.38;;;1.88;;
29412;SDS011;16389;50.126;8.450;2023-12-20T14:48:12;4.00;;;1.00;;
29412;SDS011;16389;50.126;8.450;2023-12-20T14:50:38;1.98;;;0.80;;
29412;SDS011;16389;50.126;8.450;2023-12-20T14:53:05;3.78;;;1.80;;
29412;SDS011;16389;50.126;8.450;2023-12-20T14:55:31;4.45;;;1.48;;
29412;SDS011;16389;50.126;8.450;2023-12-20T14:57:57;3.60;;;0.80;;
29412;SDS011;16389;50.126;8.450;2023-12-20T15:00:23;4.57;;;0.80;;
29412;SDS011;16389;50.126;8.450;2023-12-20T15:02:48;2.72;;;1.13;;
29412;SDS011;16389;50.126;8.450;2023-12-20T15:05:14;3.53;;;1.30;;
29412;SDS011;16389;50.126;8.450;2023-12-20T15:07:40;2.30;;;0.98;;
29412;SDS011;16389;50.126;8.450;2023-12-20T15:10:06;4.13;;;1.00;;
29412;SDS011;16389;50.126;8.450;2023-12-20T15:12:35;3.95;;;0.82;;